<?xml version="1.0" encoding="UTF-8" standalone="no" ?><gpx xmlns="http://www.topografix.com/GPX/1/1" xmlns:gpxx="http://www.garmin.com/xmlschemas/GpxExtensions/v3" xmlns:gpxtpx="http://www.garmin.com/xmlschemas/TrackPointExtension/v1" creator="Foretrex 301" version="1.1" xmlns:xsi="http://www.w3.org/2001/XMLSchema-instance" xsi:schemaLocation="http://www.topografix.com/GPX/1/1 http://www.topografix.com/GPX/1/1/gpx.xsd http://www.garmin.com/xmlschemas/GpxExtensions/v3 http://www.garmin.com/xmlschemas/GpxExtensions/v3/GpxExtensionsv3.xsd"><metadata><link href="http://www.garmin.com"><text>Garmin International</text></link><time>2011-02-09T14:51:04Z</time></metadata><trk><name>ACTIVE LOG: 09 FEB 2011 09:56</name><trkseg><trkpt lat="51.909728" lon="-1.828934"><ele>156.83</ele><time>2011-02-09T09:56:40Z</time></trkpt><trkpt lat="51.909768" lon="-1.828980"><ele>155.39</ele><time>2011-02-09T09:57:02Z</time></trkpt><trkpt lat="51.909781" lon="-1.829037"><ele>156.35</ele><time>2011-02-09T09:57:07Z</time></trkpt><trkpt lat="51.909781" lon="-1.829375"><ele>156.83</ele><time>2011-02-09T09:57:27Z</time></trkpt><trkpt lat="51.909791" lon="-1.829402"><ele>156.83</ele><time>2011-02-09T09:57:29Z</time></trkpt><trkpt lat="51.909990" lon="-1.829515"><ele>157.31</ele><time>2011-02-09T09:57:48Z</time></trkpt><trkpt lat="51.910146" lon="-1.829557"><ele>158.27</ele><time>2011-02-09T09:58:03Z</time></trkpt><trkpt lat="51.910275" lon="-1.829561"><ele>159.72</ele><time>2011-02-09T09:58:17Z</time></trkpt><trkpt lat="51.910393" lon="-1.829558"><ele>160.20</ele><time>2011-02-09T09:58:35Z</time></trkpt><trkpt lat="51.910442" lon="-1.829513"><ele>160.68</ele><time>2011-02-09T09:58:53Z</time></trkpt><trkpt lat="51.910454" lon="-1.829533"><ele>160.68</ele><time>2011-02-09T09:59:08Z</time></trkpt><trkpt lat="51.910461" lon="-1.829551"><ele>161.64</ele><time>2011-02-09T09:59:46Z</time></trkpt><trkpt lat="51.910449" lon="-1.829544"><ele>160.68</ele><time>2011-02-09T10:00:13Z</time></trkpt><trkpt lat="51.910385" lon="-1.829527"><ele>159.24</ele><time>2011-02-09T10:00:20Z</time></trkpt><trkpt lat="51.910197" lon="-1.829512"><ele>159.72</ele><time>2011-02-09T10:00:38Z</time></trkpt><trkpt lat="51.910002" lon="-1.829475"><ele>159.24</ele><time>2011-02-09T10:00:56Z</time></trkpt><trkpt lat="51.909803" lon="-1.829428"><ele>158.27</ele><time>2011-02-09T10:01:13Z</time></trkpt><trkpt lat="51.909764" lon="-1.829475"><ele>158.75</ele><time>2011-02-09T10:01:18Z</time></trkpt><trkpt lat="51.909740" lon="-1.829770"><ele>157.79</ele><time>2011-02-09T10:01:33Z</time></trkpt><trkpt lat="51.909758" lon="-1.829859"><ele>158.27</ele><time>2011-02-09T10:01:38Z</time></trkpt><trkpt lat="51.909736" lon="-1.830176"><ele>157.31</ele><time>2011-02-09T10:01:58Z</time></trkpt><trkpt lat="51.909704" lon="-1.830524"><ele>157.79</ele><time>2011-02-09T10:02:17Z</time></trkpt><trkpt lat="51.909676" lon="-1.830835"><ele>157.79</ele><time>2011-02-09T10:02:35Z</time></trkpt><trkpt lat="51.909690" lon="-1.831238"><ele>157.79</ele><time>2011-02-09T10:02:57Z</time></trkpt><trkpt lat="51.909682" lon="-1.831488"><ele>157.79</ele><time>2011-02-09T10:03:13Z</time></trkpt><trkpt lat="51.909677" lon="-1.831568"><ele>158.27</ele><time>2011-02-09T10:03:18Z</time></trkpt><trkpt lat="51.909670" lon="-1.831677"><ele>158.27</ele><time>2011-02-09T10:03:24Z</time></trkpt><trkpt lat="51.909631" lon="-1.831972"><ele>159.24</ele><time>2011-02-09T10:03:41Z</time></trkpt><trkpt lat="51.909540" lon="-1.832323"><ele>160.20</ele><time>2011-02-09T10:04:00Z</time></trkpt><trkpt lat="51.909429" lon="-1.832560"><ele>162.60</ele><time>2011-02-09T10:04:15Z</time></trkpt><trkpt lat="51.909322" lon="-1.832861"><ele>163.08</ele><time>2011-02-09T10:04:33Z</time></trkpt><trkpt lat="51.909209" lon="-1.833208"><ele>165.48</ele><time>2011-02-09T10:04:56Z</time></trkpt><trkpt lat="51.909176" lon="-1.833338"><ele>166.45</ele><time>2011-02-09T10:05:09Z</time></trkpt><trkpt lat="51.909138" lon="-1.833628"><ele>168.37</ele><time>2011-02-09T10:05:27Z</time></trkpt><trkpt lat="51.909132" lon="-1.833823"><ele>169.81</ele><time>2011-02-09T10:05:44Z</time></trkpt><trkpt lat="51.909119" lon="-1.833972"><ele>169.81</ele><time>2011-02-09T10:05:57Z</time></trkpt><trkpt lat="51.909117" lon="-1.834337"><ele>172.21</ele><time>2011-02-09T10:06:17Z</time></trkpt><trkpt lat="51.909182" lon="-1.834772"><ele>172.69</ele><time>2011-02-09T10:06:40Z</time></trkpt><trkpt lat="51.909246" lon="-1.835159"><ele>170.29</ele><time>2011-02-09T10:07:02Z</time></trkpt><trkpt lat="51.909275" lon="-1.835309"><ele>169.81</ele><time>2011-02-09T10:07:11Z</time></trkpt><trkpt lat="51.909310" lon="-1.835452"><ele>171.25</ele><time>2011-02-09T10:07:24Z</time></trkpt><trkpt lat="51.909385" lon="-1.835708"><ele>169.33</ele><time>2011-02-09T10:07:38Z</time></trkpt><trkpt lat="51.909561" lon="-1.835977"><ele>164.52</ele><time>2011-02-09T10:08:02Z</time></trkpt><trkpt lat="51.909732" lon="-1.836273"><ele>161.16</ele><time>2011-02-09T10:08:25Z</time></trkpt><trkpt lat="51.909643" lon="-1.836527"><ele>160.68</ele><time>2011-02-09T10:08:41Z</time></trkpt><trkpt lat="51.909496" lon="-1.836757"><ele>158.75</ele><time>2011-02-09T10:09:00Z</time></trkpt><trkpt lat="51.909362" lon="-1.836996"><ele>160.20</ele><time>2011-02-09T10:09:19Z</time></trkpt><trkpt lat="51.909343" lon="-1.837025"><ele>160.20</ele><time>2011-02-09T10:09:21Z</time></trkpt><trkpt lat="51.909218" lon="-1.837162"><ele>155.39</ele><time>2011-02-09T10:09:33Z</time></trkpt><trkpt lat="51.909017" lon="-1.837178"><ele>158.75</ele><time>2011-02-09T10:09:51Z</time></trkpt><trkpt lat="51.908828" lon="-1.837190"><ele>160.20</ele><time>2011-02-09T10:10:08Z</time></trkpt><trkpt lat="51.908721" lon="-1.837311"><ele>162.60</ele><time>2011-02-09T10:10:22Z</time></trkpt><trkpt lat="51.908660" lon="-1.837458"><ele>164.52</ele><time>2011-02-09T10:10:34Z</time></trkpt><trkpt lat="51.908571" lon="-1.837644"><ele>165.48</ele><time>2011-02-09T10:10:49Z</time></trkpt><trkpt lat="51.908488" lon="-1.837789"><ele>165.96</ele><time>2011-02-09T10:11:04Z</time></trkpt><trkpt lat="51.908479" lon="-1.837819"><ele>166.45</ele><time>2011-02-09T10:11:06Z</time></trkpt><trkpt lat="51.908396" lon="-1.838036"><ele>167.89</ele><time>2011-02-09T10:11:22Z</time></trkpt><trkpt lat="51.908364" lon="-1.838139"><ele>171.73</ele><time>2011-02-09T10:11:36Z</time></trkpt><trkpt lat="51.908381" lon="-1.838220"><ele>172.69</ele><time>2011-02-09T10:11:42Z</time></trkpt><trkpt lat="51.908346" lon="-1.838542"><ele>175.10</ele><time>2011-02-09T10:11:58Z</time></trkpt><trkpt lat="51.908360" lon="-1.838919"><ele>175.10</ele><time>2011-02-09T10:12:18Z</time></trkpt><trkpt lat="51.908360" lon="-1.839063"><ele>173.66</ele><time>2011-02-09T10:12:28Z</time></trkpt><trkpt lat="51.908364" lon="-1.839126"><ele>174.14</ele><time>2011-02-09T10:12:35Z</time></trkpt><trkpt lat="51.908394" lon="-1.839030"><ele>175.10</ele><time>2011-02-09T10:12:51Z</time></trkpt><trkpt lat="51.908347" lon="-1.839056"><ele>176.54</ele><time>2011-02-09T10:13:09Z</time></trkpt><trkpt lat="51.908323" lon="-1.839121"><ele>176.54</ele><time>2011-02-09T10:13:18Z</time></trkpt><trkpt lat="51.908312" lon="-1.839314"><ele>172.21</ele><time>2011-02-09T10:13:33Z</time></trkpt><trkpt lat="51.908301" lon="-1.839581"><ele>173.66</ele><time>2011-02-09T10:13:48Z</time></trkpt><trkpt lat="51.908292" lon="-1.839780"><ele>174.62</ele><time>2011-02-09T10:13:59Z</time></trkpt><trkpt lat="51.908344" lon="-1.840034"><ele>176.06</ele><time>2011-02-09T10:14:13Z</time></trkpt><trkpt lat="51.908324" lon="-1.840387"><ele>177.02</ele><time>2011-02-09T10:14:32Z</time></trkpt><trkpt lat="51.908313" lon="-1.840695"><ele>178.46</ele><time>2011-02-09T10:14:51Z</time></trkpt><trkpt lat="51.908290" lon="-1.841042"><ele>180.87</ele><time>2011-02-09T10:15:11Z</time></trkpt><trkpt lat="51.908268" lon="-1.841313"><ele>181.35</ele><time>2011-02-09T10:15:28Z</time></trkpt><trkpt lat="51.908280" lon="-1.841565"><ele>182.31</ele><time>2011-02-09T10:15:43Z</time></trkpt><trkpt lat="51.908281" lon="-1.841873"><ele>183.75</ele><time>2011-02-09T10:16:01Z</time></trkpt><trkpt lat="51.908291" lon="-1.841960"><ele>184.71</ele><time>2011-02-09T10:16:11Z</time></trkpt><trkpt lat="51.908286" lon="-1.842181"><ele>185.67</ele><time>2011-02-09T10:16:26Z</time></trkpt><trkpt lat="51.908307" lon="-1.842449"><ele>185.67</ele><time>2011-02-09T10:16:42Z</time></trkpt><trkpt lat="51.908306" lon="-1.842675"><ele>186.63</ele><time>2011-02-09T10:16:55Z</time></trkpt><trkpt lat="51.908291" lon="-1.842953"><ele>187.11</ele><time>2011-02-09T10:17:10Z</time></trkpt><trkpt lat="51.908282" lon="-1.843114"><ele>189.04</ele><time>2011-02-09T10:17:26Z</time></trkpt><trkpt lat="51.908266" lon="-1.843407"><ele>188.56</ele><time>2011-02-09T10:17:43Z</time></trkpt><trkpt lat="51.908248" lon="-1.843581"><ele>189.04</ele><time>2011-02-09T10:17:56Z</time></trkpt><trkpt lat="51.908260" lon="-1.843720"><ele>188.08</ele><time>2011-02-09T10:18:07Z</time></trkpt><trkpt lat="51.908273" lon="-1.844028"><ele>183.27</ele><time>2011-02-09T10:18:26Z</time></trkpt><trkpt lat="51.908253" lon="-1.844167"><ele>185.67</ele><time>2011-02-09T10:18:39Z</time></trkpt><trkpt lat="51.908237" lon="-1.844414"><ele>190.96</ele><time>2011-02-09T10:18:53Z</time></trkpt><trkpt lat="51.908206" lon="-1.844586"><ele>193.36</ele><time>2011-02-09T10:19:06Z</time></trkpt><trkpt lat="51.908165" lon="-1.844767"><ele>195.28</ele><time>2011-02-09T10:19:20Z</time></trkpt><trkpt lat="51.908111" lon="-1.844963"><ele>195.28</ele><time>2011-02-09T10:19:36Z</time></trkpt><trkpt lat="51.908076" lon="-1.845162"><ele>198.17</ele><time>2011-02-09T10:19:51Z</time></trkpt><trkpt lat="51.908018" lon="-1.845356"><ele>201.53</ele><time>2011-02-09T10:20:05Z</time></trkpt><trkpt lat="51.907989" lon="-1.845522"><ele>203.46</ele><time>2011-02-09T10:20:18Z</time></trkpt><trkpt lat="51.907954" lon="-1.845680"><ele>205.86</ele><time>2011-02-09T10:20:30Z</time></trkpt><trkpt lat="51.907899" lon="-1.845897"><ele>208.26</ele><time>2011-02-09T10:20:46Z</time></trkpt><trkpt lat="51.907842" lon="-1.846082"><ele>213.07</ele><time>2011-02-09T10:21:02Z</time></trkpt><trkpt lat="51.907808" lon="-1.846258"><ele>215.47</ele><time>2011-02-09T10:21:16Z</time></trkpt><trkpt lat="51.907790" lon="-1.846324"><ele>215.95</ele><time>2011-02-09T10:21:22Z</time></trkpt><trkpt lat="51.907757" lon="-1.846502"><ele>215.95</ele><time>2011-02-09T10:21:35Z</time></trkpt><trkpt lat="51.907726" lon="-1.846662"><ele>217.40</ele><time>2011-02-09T10:21:48Z</time></trkpt><trkpt lat="51.907680" lon="-1.846889"><ele>218.36</ele><time>2011-02-09T10:22:04Z</time></trkpt><trkpt lat="51.907627" lon="-1.847082"><ele>217.88</ele><time>2011-02-09T10:22:18Z</time></trkpt><trkpt lat="51.907600" lon="-1.847339"><ele>218.36</ele><time>2011-02-09T10:22:33Z</time></trkpt><trkpt lat="51.907573" lon="-1.847530"><ele>218.36</ele><time>2011-02-09T10:22:47Z</time></trkpt><trkpt lat="51.907537" lon="-1.847737"><ele>219.80</ele><time>2011-02-09T10:23:02Z</time></trkpt><trkpt lat="51.907508" lon="-1.847991"><ele>221.24</ele><time>2011-02-09T10:23:20Z</time></trkpt><trkpt lat="51.907451" lon="-1.848211"><ele>220.28</ele><time>2011-02-09T10:23:36Z</time></trkpt><trkpt lat="51.907400" lon="-1.848431"><ele>220.28</ele><time>2011-02-09T10:23:52Z</time></trkpt><trkpt lat="51.907361" lon="-1.848682"><ele>222.20</ele><time>2011-02-09T10:24:09Z</time></trkpt><trkpt lat="51.907282" lon="-1.848956"><ele>222.68</ele><time>2011-02-09T10:24:28Z</time></trkpt><trkpt lat="51.907266" lon="-1.848996"><ele>222.20</ele><time>2011-02-09T10:24:38Z</time></trkpt><trkpt lat="51.907268" lon="-1.848997"><ele>222.20</ele><time>2011-02-09T10:24:41Z</time></trkpt><trkpt lat="51.907262" lon="-1.848998"><ele>221.72</ele><time>2011-02-09T10:24:43Z</time></trkpt><trkpt lat="51.907234" lon="-1.848993"><ele>222.20</ele><time>2011-02-09T10:24:46Z</time></trkpt><trkpt lat="51.907156" lon="-1.849022"><ele>222.68</ele><time>2011-02-09T10:24:54Z</time></trkpt><trkpt lat="51.906936" lon="-1.848901"><ele>223.64</ele><time>2011-02-09T10:25:13Z</time></trkpt><trkpt lat="51.906705" lon="-1.848764"><ele>224.61</ele><time>2011-02-09T10:25:33Z</time></trkpt><trkpt lat="51.906662" lon="-1.848736"><ele>225.57</ele><time>2011-02-09T10:25:37Z</time></trkpt><trkpt lat="51.906526" lon="-1.848661"><ele>225.09</ele><time>2011-02-09T10:25:49Z</time></trkpt><trkpt lat="51.906360" lon="-1.848524"><ele>226.53</ele><time>2011-02-09T10:26:07Z</time></trkpt><trkpt lat="51.906318" lon="-1.848496"><ele>226.05</ele><time>2011-02-09T10:26:12Z</time></trkpt><trkpt lat="51.906153" lon="-1.848387"><ele>224.12</ele><time>2011-02-09T10:26:29Z</time></trkpt><trkpt lat="51.905929" lon="-1.848278"><ele>220.76</ele><time>2011-02-09T10:26:52Z</time></trkpt><trkpt lat="51.905837" lon="-1.848221"><ele>218.84</ele><time>2011-02-09T10:27:05Z</time></trkpt><trkpt lat="51.905737" lon="-1.848150"><ele>218.36</ele><time>2011-02-09T10:27:13Z</time></trkpt><trkpt lat="51.905676" lon="-1.848129"><ele>217.40</ele><time>2011-02-09T10:27:18Z</time></trkpt><trkpt lat="51.905417" lon="-1.847942"><ele>214.99</ele><time>2011-02-09T10:27:42Z</time></trkpt><trkpt lat="51.905212" lon="-1.847825"><ele>212.59</ele><time>2011-02-09T10:27:59Z</time></trkpt><trkpt lat="51.904855" lon="-1.847582"><ele>210.67</ele><time>2011-02-09T10:28:28Z</time></trkpt><trkpt lat="51.904599" lon="-1.847431"><ele>209.22</ele><time>2011-02-09T10:28:50Z</time></trkpt><trkpt lat="51.904420" lon="-1.847316"><ele>211.63</ele><time>2011-02-09T10:29:07Z</time></trkpt><trkpt lat="51.904157" lon="-1.847141"><ele>213.07</ele><time>2011-02-09T10:29:31Z</time></trkpt><trkpt lat="51.903927" lon="-1.847004"><ele>213.55</ele><time>2011-02-09T10:29:51Z</time></trkpt><trkpt lat="51.903741" lon="-1.846882"><ele>214.03</ele><time>2011-02-09T10:30:08Z</time></trkpt><trkpt lat="51.903460" lon="-1.846713"><ele>214.99</ele><time>2011-02-09T10:30:34Z</time></trkpt><trkpt lat="51.903185" lon="-1.846552"><ele>214.51</ele><time>2011-02-09T10:30:59Z</time></trkpt><trkpt lat="51.903134" lon="-1.846521"><ele>214.99</ele><time>2011-02-09T10:31:04Z</time></trkpt><trkpt lat="51.903112" lon="-1.846510"><ele>214.99</ele><time>2011-02-09T10:31:06Z</time></trkpt><trkpt lat="51.902922" lon="-1.846383"><ele>215.47</ele><time>2011-02-09T10:31:25Z</time></trkpt><trkpt lat="51.902912" lon="-1.846376"><ele>215.47</ele><time>2011-02-09T10:31:26Z</time></trkpt><trkpt lat="51.902862" lon="-1.846350"><ele>214.99</ele><time>2011-02-09T10:31:31Z</time></trkpt><trkpt lat="51.902693" lon="-1.846255"><ele>214.51</ele><time>2011-02-09T10:31:48Z</time></trkpt><trkpt lat="51.902470" lon="-1.846105"><ele>214.99</ele><time>2011-02-09T10:32:09Z</time></trkpt><trkpt lat="51.902264" lon="-1.845978"><ele>214.99</ele><time>2011-02-09T10:32:29Z</time></trkpt><trkpt lat="51.902121" lon="-1.845895"><ele>214.99</ele><time>2011-02-09T10:32:45Z</time></trkpt><trkpt lat="51.902000" lon="-1.845835"><ele>215.47</ele><time>2011-02-09T10:32:57Z</time></trkpt><trkpt lat="51.901760" lon="-1.845670"><ele>215.47</ele><time>2011-02-09T10:33:19Z</time></trkpt><trkpt lat="51.901614" lon="-1.845583"><ele>214.51</ele><time>2011-02-09T10:33:37Z</time></trkpt><trkpt lat="51.901606" lon="-1.845596"><ele>214.99</ele><time>2011-02-09T10:33:54Z</time></trkpt><trkpt lat="51.901516" lon="-1.845540"><ele>214.51</ele><time>2011-02-09T10:34:06Z</time></trkpt><trkpt lat="51.901489" lon="-1.845537"><ele>214.99</ele><time>2011-02-09T10:34:29Z</time></trkpt><trkpt lat="51.901449" lon="-1.845499"><ele>214.99</ele><time>2011-02-09T10:34:44Z</time></trkpt><trkpt lat="51.901320" lon="-1.845413"><ele>215.47</ele><time>2011-02-09T10:34:58Z</time></trkpt><trkpt lat="51.901144" lon="-1.845305"><ele>214.51</ele><time>2011-02-09T10:35:14Z</time></trkpt><trkpt lat="51.900956" lon="-1.845176"><ele>214.03</ele><time>2011-02-09T10:35:31Z</time></trkpt><trkpt lat="51.900746" lon="-1.845040"><ele>215.47</ele><time>2011-02-09T10:35:50Z</time></trkpt><trkpt lat="51.900535" lon="-1.844918"><ele>215.95</ele><time>2011-02-09T10:36:11Z</time></trkpt><trkpt lat="51.900322" lon="-1.844775"><ele>215.95</ele><time>2011-02-09T10:36:32Z</time></trkpt><trkpt lat="51.900103" lon="-1.844647"><ele>214.99</ele><time>2011-02-09T10:36:54Z</time></trkpt><trkpt lat="51.899886" lon="-1.844515"><ele>214.03</ele><time>2011-02-09T10:37:15Z</time></trkpt><trkpt lat="51.899679" lon="-1.844392"><ele>212.11</ele><time>2011-02-09T10:37:35Z</time></trkpt><trkpt lat="51.899495" lon="-1.844273"><ele>210.67</ele><time>2011-02-09T10:37:53Z</time></trkpt><trkpt lat="51.899316" lon="-1.844149"><ele>208.74</ele><time>2011-02-09T10:38:11Z</time></trkpt><trkpt lat="51.899142" lon="-1.843991"><ele>207.30</ele><time>2011-02-09T10:38:30Z</time></trkpt><trkpt lat="51.898961" lon="-1.843786"><ele>204.90</ele><time>2011-02-09T10:38:51Z</time></trkpt><trkpt lat="51.898758" lon="-1.843585"><ele>201.53</ele><time>2011-02-09T10:39:15Z</time></trkpt><trkpt lat="51.898581" lon="-1.843392"><ele>199.13</ele><time>2011-02-09T10:39:35Z</time></trkpt><trkpt lat="51.898385" lon="-1.843254"><ele>195.77</ele><time>2011-02-09T10:39:56Z</time></trkpt><trkpt lat="51.898176" lon="-1.843152"><ele>193.36</ele><time>2011-02-09T10:40:17Z</time></trkpt><trkpt lat="51.897965" lon="-1.843053"><ele>190.00</ele><time>2011-02-09T10:40:38Z</time></trkpt><trkpt lat="51.897778" lon="-1.842914"><ele>187.11</ele><time>2011-02-09T10:40:58Z</time></trkpt><trkpt lat="51.897603" lon="-1.842723"><ele>185.67</ele><time>2011-02-09T10:41:19Z</time></trkpt><trkpt lat="51.897527" lon="-1.842479"><ele>184.71</ele><time>2011-02-09T10:41:37Z</time></trkpt><trkpt lat="51.897486" lon="-1.842190"><ele>182.31</ele><time>2011-02-09T10:41:57Z</time></trkpt><trkpt lat="51.897429" lon="-1.842025"><ele>180.87</ele><time>2011-02-09T10:42:13Z</time></trkpt><trkpt lat="51.897413" lon="-1.841917"><ele>179.42</ele><time>2011-02-09T10:42:28Z</time></trkpt><trkpt lat="51.897380" lon="-1.841662"><ele>175.10</ele><time>2011-02-09T10:42:46Z</time></trkpt><trkpt lat="51.897331" lon="-1.841452"><ele>173.17</ele><time>2011-02-09T10:43:01Z</time></trkpt><trkpt lat="51.897297" lon="-1.841370"><ele>174.14</ele><time>2011-02-09T10:43:12Z</time></trkpt><trkpt lat="51.897279" lon="-1.841292"><ele>174.14</ele><time>2011-02-09T10:43:21Z</time></trkpt><trkpt lat="51.897272" lon="-1.841203"><ele>174.62</ele><time>2011-02-09T10:43:36Z</time></trkpt><trkpt lat="51.897281" lon="-1.841152"><ele>173.66</ele><time>2011-02-09T10:43:50Z</time></trkpt><trkpt lat="51.897266" lon="-1.841135"><ele>173.66</ele><time>2011-02-09T10:44:13Z</time></trkpt><trkpt lat="51.897246" lon="-1.841058"><ele>174.14</ele><time>2011-02-09T10:44:41Z</time></trkpt><trkpt lat="51.897201" lon="-1.840916"><ele>173.66</ele><time>2011-02-09T10:44:52Z</time></trkpt><trkpt lat="51.897149" lon="-1.840742"><ele>175.10</ele><time>2011-02-09T10:45:07Z</time></trkpt><trkpt lat="51.897086" lon="-1.840608"><ele>176.06</ele><time>2011-02-09T10:45:20Z</time></trkpt><trkpt lat="51.896996" lon="-1.840500"><ele>177.98</ele><time>2011-02-09T10:45:33Z</time></trkpt><trkpt lat="51.896900" lon="-1.840413"><ele>180.38</ele><time>2011-02-09T10:45:47Z</time></trkpt><trkpt lat="51.896842" lon="-1.840402"><ele>181.35</ele><time>2011-02-09T10:45:55Z</time></trkpt><trkpt lat="51.896706" lon="-1.840418"><ele>183.75</ele><time>2011-02-09T10:46:10Z</time></trkpt><trkpt lat="51.896578" lon="-1.840482"><ele>185.67</ele><time>2011-02-09T10:46:23Z</time></trkpt><trkpt lat="51.896459" lon="-1.840579"><ele>187.11</ele><time>2011-02-09T10:46:37Z</time></trkpt><trkpt lat="51.896436" lon="-1.840597"><ele>187.59</ele><time>2011-02-09T10:46:40Z</time></trkpt><trkpt lat="51.896368" lon="-1.840648"><ele>188.08</ele><time>2011-02-09T10:46:55Z</time></trkpt><trkpt lat="51.896290" lon="-1.840620"><ele>189.52</ele><time>2011-02-09T10:47:08Z</time></trkpt><trkpt lat="51.896279" lon="-1.840630"><ele>189.52</ele><time>2011-02-09T10:47:22Z</time></trkpt><trkpt lat="51.896266" lon="-1.840649"><ele>190.00</ele><time>2011-02-09T10:47:42Z</time></trkpt><trkpt lat="51.896266" lon="-1.840649"><ele>190.96</ele><time>2011-02-09T10:48:08Z</time></trkpt><trkpt lat="51.896204" lon="-1.840604"><ele>190.96</ele><time>2011-02-09T10:48:47Z</time></trkpt><trkpt lat="51.896152" lon="-1.840570"><ele>191.44</ele><time>2011-02-09T10:48:58Z</time></trkpt><trkpt lat="51.896157" lon="-1.840608"><ele>190.00</ele><time>2011-02-09T10:49:13Z</time></trkpt><trkpt lat="51.896169" lon="-1.840606"><ele>189.52</ele><time>2011-02-09T10:49:23Z</time></trkpt><trkpt lat="51.896250" lon="-1.840658"><ele>189.04</ele><time>2011-02-09T10:49:35Z</time></trkpt><trkpt lat="51.896088" lon="-1.840495"><ele>187.11</ele><time>2011-02-09T10:49:52Z</time></trkpt><trkpt lat="51.895869" lon="-1.840341"><ele>187.11</ele><time>2011-02-09T10:50:18Z</time></trkpt><trkpt lat="51.895806" lon="-1.840303"><ele>190.00</ele><time>2011-02-09T10:50:25Z</time></trkpt><trkpt lat="51.895671" lon="-1.840173"><ele>193.84</ele><time>2011-02-09T10:50:42Z</time></trkpt><trkpt lat="51.895566" lon="-1.840099"><ele>194.80</ele><time>2011-02-09T10:50:56Z</time></trkpt><trkpt lat="51.895564" lon="-1.840089"><ele>194.80</ele><time>2011-02-09T10:50:57Z</time></trkpt><trkpt lat="51.895523" lon="-1.839954"><ele>195.77</ele><time>2011-02-09T10:51:10Z</time></trkpt><trkpt lat="51.895495" lon="-1.839936"><ele>196.25</ele><time>2011-02-09T10:51:15Z</time></trkpt><trkpt lat="51.895433" lon="-1.839928"><ele>196.73</ele><time>2011-02-09T10:51:28Z</time></trkpt><trkpt lat="51.895425" lon="-1.839914"><ele>197.21</ele><time>2011-02-09T10:51:32Z</time></trkpt><trkpt lat="51.895305" lon="-1.839765"><ele>198.65</ele><time>2011-02-09T10:51:47Z</time></trkpt><trkpt lat="51.895179" lon="-1.839627"><ele>199.13</ele><time>2011-02-09T10:52:02Z</time></trkpt><trkpt lat="51.895070" lon="-1.839501"><ele>201.53</ele><time>2011-02-09T10:52:17Z</time></trkpt><trkpt lat="51.894951" lon="-1.839359"><ele>200.57</ele><time>2011-02-09T10:52:32Z</time></trkpt><trkpt lat="51.894844" lon="-1.839256"><ele>203.94</ele><time>2011-02-09T10:52:47Z</time></trkpt><trkpt lat="51.894753" lon="-1.839124"><ele>208.74</ele><time>2011-02-09T10:53:03Z</time></trkpt><trkpt lat="51.894669" lon="-1.838998"><ele>210.19</ele><time>2011-02-09T10:53:14Z</time></trkpt><trkpt lat="51.894562" lon="-1.838891"><ele>209.70</ele><time>2011-02-09T10:53:27Z</time></trkpt><trkpt lat="51.894485" lon="-1.838831"><ele>212.11</ele><time>2011-02-09T10:53:40Z</time></trkpt><trkpt lat="51.894381" lon="-1.838729"><ele>213.07</ele><time>2011-02-09T10:53:52Z</time></trkpt><trkpt lat="51.894228" lon="-1.838560"><ele>210.19</ele><time>2011-02-09T10:54:12Z</time></trkpt><trkpt lat="51.894125" lon="-1.838493"><ele>211.63</ele><time>2011-02-09T10:54:26Z</time></trkpt><trkpt lat="51.894116" lon="-1.838517"><ele>211.15</ele><time>2011-02-09T10:54:41Z</time></trkpt><trkpt lat="51.894042" lon="-1.838420"><ele>212.11</ele><time>2011-02-09T10:54:53Z</time></trkpt><trkpt lat="51.893968" lon="-1.838318"><ele>212.59</ele><time>2011-02-09T10:55:03Z</time></trkpt><trkpt lat="51.893873" lon="-1.838218"><ele>214.03</ele><time>2011-02-09T10:55:16Z</time></trkpt><trkpt lat="51.893818" lon="-1.838181"><ele>215.95</ele><time>2011-02-09T10:55:32Z</time></trkpt><trkpt lat="51.893714" lon="-1.838006"><ele>218.36</ele><time>2011-02-09T10:55:55Z</time></trkpt><trkpt lat="51.893664" lon="-1.837953"><ele>218.84</ele><time>2011-02-09T10:56:08Z</time></trkpt><trkpt lat="51.893622" lon="-1.837914"><ele>218.84</ele><time>2011-02-09T10:56:24Z</time></trkpt><trkpt lat="51.893594" lon="-1.837905"><ele>218.84</ele><time>2011-02-09T10:56:37Z</time></trkpt><trkpt lat="51.893596" lon="-1.837898"><ele>217.40</ele><time>2011-02-09T10:56:53Z</time></trkpt><trkpt lat="51.893577" lon="-1.837928"><ele>214.99</ele><time>2011-02-09T10:57:44Z</time></trkpt><trkpt lat="51.893595" lon="-1.838000"><ele>214.51</ele><time>2011-02-09T10:58:01Z</time></trkpt><trkpt lat="51.893598" lon="-1.838017"><ele>212.59</ele><time>2011-02-09T10:58:22Z</time></trkpt><trkpt lat="51.893604" lon="-1.838014"><ele>211.63</ele><time>2011-02-09T10:59:33Z</time></trkpt><trkpt lat="51.893586" lon="-1.837974"><ele>213.55</ele><time>2011-02-09T11:03:20Z</time></trkpt><trkpt lat="51.893580" lon="-1.837975"><ele>212.59</ele><time>2011-02-09T11:03:51Z</time></trkpt><trkpt lat="51.893585" lon="-1.838003"><ele>214.03</ele><time>2011-02-09T11:04:48Z</time></trkpt><trkpt lat="51.893600" lon="-1.837996"><ele>214.51</ele><time>2011-02-09T11:05:35Z</time></trkpt><trkpt lat="51.893603" lon="-1.837996"><ele>213.55</ele><time>2011-02-09T11:06:43Z</time></trkpt><trkpt lat="51.893599" lon="-1.837997"><ele>212.11</ele><time>2011-02-09T11:07:32Z</time></trkpt><trkpt lat="51.893601" lon="-1.837990"><ele>212.11</ele><time>2011-02-09T11:08:32Z</time></trkpt><trkpt lat="51.893605" lon="-1.837995"><ele>212.59</ele><time>2011-02-09T11:09:44Z</time></trkpt><trkpt lat="51.893616" lon="-1.837942"><ele>213.07</ele><time>2011-02-09T11:10:44Z</time></trkpt><trkpt lat="51.893519" lon="-1.837763"><ele>214.99</ele><time>2011-02-09T11:11:00Z</time></trkpt><trkpt lat="51.893512" lon="-1.837751"><ele>214.99</ele><time>2011-02-09T11:11:01Z</time></trkpt><trkpt lat="51.893409" lon="-1.837590"><ele>217.40</ele><time>2011-02-09T11:11:22Z</time></trkpt><trkpt lat="51.893281" lon="-1.837452"><ele>219.32</ele><time>2011-02-09T11:11:40Z</time></trkpt><trkpt lat="51.893151" lon="-1.837321"><ele>220.28</ele><time>2011-02-09T11:11:57Z</time></trkpt><trkpt lat="51.893028" lon="-1.837215"><ele>220.76</ele><time>2011-02-09T11:12:12Z</time></trkpt><trkpt lat="51.892937" lon="-1.837080"><ele>221.24</ele><time>2011-02-09T11:12:25Z</time></trkpt><trkpt lat="51.892896" lon="-1.837029"><ele>222.20</ele><time>2011-02-09T11:12:30Z</time></trkpt><trkpt lat="51.892879" lon="-1.837013"><ele>222.20</ele><time>2011-02-09T11:12:32Z</time></trkpt><trkpt lat="51.892835" lon="-1.836972"><ele>222.68</ele><time>2011-02-09T11:12:37Z</time></trkpt><trkpt lat="51.892800" lon="-1.836940"><ele>223.16</ele><time>2011-02-09T11:12:41Z</time></trkpt><trkpt lat="51.892742" lon="-1.836872"><ele>223.64</ele><time>2011-02-09T11:12:49Z</time></trkpt><trkpt lat="51.892601" lon="-1.836709"><ele>225.09</ele><time>2011-02-09T11:13:06Z</time></trkpt><trkpt lat="51.892435" lon="-1.836511"><ele>225.57</ele><time>2011-02-09T11:13:27Z</time></trkpt><trkpt lat="51.892427" lon="-1.836501"><ele>225.57</ele><time>2011-02-09T11:13:28Z</time></trkpt><trkpt lat="51.892268" lon="-1.836341"><ele>226.53</ele><time>2011-02-09T11:13:45Z</time></trkpt><trkpt lat="51.892166" lon="-1.836255"><ele>227.01</ele><time>2011-02-09T11:13:55Z</time></trkpt><trkpt lat="51.891997" lon="-1.836084"><ele>226.53</ele><time>2011-02-09T11:14:13Z</time></trkpt><trkpt lat="51.891898" lon="-1.835982"><ele>226.53</ele><time>2011-02-09T11:14:29Z</time></trkpt><trkpt lat="51.891894" lon="-1.835964"><ele>226.05</ele><time>2011-02-09T11:14:44Z</time></trkpt><trkpt lat="51.891896" lon="-1.835977"><ele>227.01</ele><time>2011-02-09T11:15:04Z</time></trkpt><trkpt lat="51.891891" lon="-1.835966"><ele>227.97</ele><time>2011-02-09T11:15:19Z</time></trkpt><trkpt lat="51.891921" lon="-1.835889"><ele>227.97</ele><time>2011-02-09T11:15:31Z</time></trkpt><trkpt lat="51.891953" lon="-1.835713"><ele>226.05</ele><time>2011-02-09T11:15:47Z</time></trkpt><trkpt lat="51.891919" lon="-1.835710"><ele>225.57</ele><time>2011-02-09T11:16:01Z</time></trkpt><trkpt lat="51.891905" lon="-1.835702"><ele>226.05</ele><time>2011-02-09T11:16:03Z</time></trkpt><trkpt lat="51.891789" lon="-1.835261"><ele>225.09</ele><time>2011-02-09T11:16:23Z</time></trkpt><trkpt lat="51.891637" lon="-1.835000"><ele>226.53</ele><time>2011-02-09T11:16:42Z</time></trkpt><trkpt lat="51.891474" lon="-1.834990"><ele>227.97</ele><time>2011-02-09T11:17:01Z</time></trkpt><trkpt lat="51.891347" lon="-1.835000"><ele>227.49</ele><time>2011-02-09T11:17:17Z</time></trkpt><trkpt lat="51.891184" lon="-1.834799"><ele>226.53</ele><time>2011-02-09T11:17:39Z</time></trkpt><trkpt lat="51.891024" lon="-1.834564"><ele>227.01</ele><time>2011-02-09T11:18:02Z</time></trkpt><trkpt lat="51.890897" lon="-1.834385"><ele>226.53</ele><time>2011-02-09T11:18:22Z</time></trkpt><trkpt lat="51.890789" lon="-1.834117"><ele>226.53</ele><time>2011-02-09T11:18:43Z</time></trkpt><trkpt lat="51.890740" lon="-1.833820"><ele>226.05</ele><time>2011-02-09T11:19:06Z</time></trkpt><trkpt lat="51.890718" lon="-1.833776"><ele>225.09</ele><time>2011-02-09T11:19:33Z</time></trkpt><trkpt lat="51.890701" lon="-1.833719"><ele>226.05</ele><time>2011-02-09T11:19:54Z</time></trkpt><trkpt lat="51.890618" lon="-1.833702"><ele>226.53</ele><time>2011-02-09T11:20:12Z</time></trkpt><trkpt lat="51.890567" lon="-1.833422"><ele>224.61</ele><time>2011-02-09T11:20:31Z</time></trkpt><trkpt lat="51.890522" lon="-1.833202"><ele>223.64</ele><time>2011-02-09T11:20:48Z</time></trkpt><trkpt lat="51.890465" lon="-1.832933"><ele>222.68</ele><time>2011-02-09T11:21:07Z</time></trkpt><trkpt lat="51.890429" lon="-1.832738"><ele>222.68</ele><time>2011-02-09T11:21:20Z</time></trkpt><trkpt lat="51.890226" lon="-1.832431"><ele>222.68</ele><time>2011-02-09T11:21:46Z</time></trkpt><trkpt lat="51.890084" lon="-1.832238"><ele>222.20</ele><time>2011-02-09T11:22:06Z</time></trkpt><trkpt lat="51.889871" lon="-1.831972"><ele>221.72</ele><time>2011-02-09T11:22:29Z</time></trkpt><trkpt lat="51.889756" lon="-1.831833"><ele>219.80</ele><time>2011-02-09T11:22:48Z</time></trkpt><trkpt lat="51.889759" lon="-1.831833"><ele>219.32</ele><time>2011-02-09T11:22:57Z</time></trkpt><trkpt lat="51.889708" lon="-1.831570"><ele>218.36</ele><time>2011-02-09T11:23:16Z</time></trkpt><trkpt lat="51.889711" lon="-1.831568"><ele>218.36</ele><time>2011-02-09T11:23:23Z</time></trkpt><trkpt lat="51.889716" lon="-1.831620"><ele>219.32</ele><time>2011-02-09T11:23:27Z</time></trkpt><trkpt lat="51.889723" lon="-1.831844"><ele>220.76</ele><time>2011-02-09T11:23:39Z</time></trkpt><trkpt lat="51.889665" lon="-1.831786"><ele>219.80</ele><time>2011-02-09T11:23:46Z</time></trkpt><trkpt lat="51.889602" lon="-1.831695"><ele>218.84</ele><time>2011-02-09T11:23:57Z</time></trkpt><trkpt lat="51.889690" lon="-1.831832"><ele>220.28</ele><time>2011-02-09T11:24:06Z</time></trkpt><trkpt lat="51.889720" lon="-1.831815"><ele>219.80</ele><time>2011-02-09T11:24:12Z</time></trkpt><trkpt lat="51.889671" lon="-1.831277"><ele>215.47</ele><time>2011-02-09T11:24:38Z</time></trkpt><trkpt lat="51.889628" lon="-1.830807"><ele>214.51</ele><time>2011-02-09T11:25:01Z</time></trkpt><trkpt lat="51.889575" lon="-1.830571"><ele>214.03</ele><time>2011-02-09T11:25:12Z</time></trkpt><trkpt lat="51.889710" lon="-1.830252"><ele>211.63</ele><time>2011-02-09T11:25:33Z</time></trkpt><trkpt lat="51.889717" lon="-1.830236"><ele>212.11</ele><time>2011-02-09T11:25:34Z</time></trkpt><trkpt lat="51.889726" lon="-1.830206"><ele>213.07</ele><time>2011-02-09T11:25:36Z</time></trkpt><trkpt lat="51.889741" lon="-1.830173"><ele>214.03</ele><time>2011-02-09T11:25:39Z</time></trkpt><trkpt lat="51.889755" lon="-1.830145"><ele>214.99</ele><time>2011-02-09T11:25:41Z</time></trkpt><trkpt lat="51.889862" lon="-1.829904"><ele>215.95</ele><time>2011-02-09T11:25:57Z</time></trkpt><trkpt lat="51.889909" lon="-1.829802"><ele>215.95</ele><time>2011-02-09T11:26:24Z</time></trkpt><trkpt lat="51.890038" lon="-1.829578"><ele>218.84</ele><time>2011-02-09T11:26:42Z</time></trkpt><trkpt lat="51.890106" lon="-1.829497"><ele>220.76</ele><time>2011-02-09T11:26:57Z</time></trkpt><trkpt lat="51.890188" lon="-1.829344"><ele>222.68</ele><time>2011-02-09T11:27:12Z</time></trkpt><trkpt lat="51.890192" lon="-1.829325"><ele>222.68</ele><time>2011-02-09T11:27:13Z</time></trkpt><trkpt lat="51.890234" lon="-1.829213"><ele>221.72</ele><time>2011-02-09T11:27:19Z</time></trkpt><trkpt lat="51.890368" lon="-1.828943"><ele>220.76</ele><time>2011-02-09T11:27:38Z</time></trkpt><trkpt lat="51.890384" lon="-1.828926"><ele>218.84</ele><time>2011-02-09T11:27:59Z</time></trkpt><trkpt lat="51.890521" lon="-1.828658"><ele>218.84</ele><time>2011-02-09T11:28:19Z</time></trkpt><trkpt lat="51.890589" lon="-1.828517"><ele>216.43</ele><time>2011-02-09T11:28:33Z</time></trkpt><trkpt lat="51.890720" lon="-1.828256"><ele>217.40</ele><time>2011-02-09T11:28:52Z</time></trkpt><trkpt lat="51.890920" lon="-1.827894"><ele>216.43</ele><time>2011-02-09T11:29:16Z</time></trkpt><trkpt lat="51.891107" lon="-1.827577"><ele>215.47</ele><time>2011-02-09T11:29:39Z</time></trkpt><trkpt lat="51.891347" lon="-1.827248"><ele>214.99</ele><time>2011-02-09T11:30:05Z</time></trkpt><trkpt lat="51.891607" lon="-1.826970"><ele>214.99</ele><time>2011-02-09T11:30:32Z</time></trkpt><trkpt lat="51.891802" lon="-1.826784"><ele>213.55</ele><time>2011-02-09T11:30:52Z</time></trkpt><trkpt lat="51.892012" lon="-1.826566"><ele>212.59</ele><time>2011-02-09T11:31:13Z</time></trkpt><trkpt lat="51.892207" lon="-1.826343"><ele>213.55</ele><time>2011-02-09T11:31:35Z</time></trkpt><trkpt lat="51.892398" lon="-1.826150"><ele>214.03</ele><time>2011-02-09T11:31:56Z</time></trkpt><trkpt lat="51.892607" lon="-1.825904"><ele>215.47</ele><time>2011-02-09T11:32:20Z</time></trkpt><trkpt lat="51.892767" lon="-1.825683"><ele>214.51</ele><time>2011-02-09T11:32:40Z</time></trkpt><trkpt lat="51.892949" lon="-1.825436"><ele>214.99</ele><time>2011-02-09T11:33:01Z</time></trkpt><trkpt lat="51.893138" lon="-1.825169"><ele>214.99</ele><time>2011-02-09T11:33:24Z</time></trkpt><trkpt lat="51.893316" lon="-1.824935"><ele>214.51</ele><time>2011-02-09T11:33:45Z</time></trkpt><trkpt lat="51.893507" lon="-1.824707"><ele>214.03</ele><time>2011-02-09T11:34:06Z</time></trkpt><trkpt lat="51.893788" lon="-1.824394"><ele>211.15</ele><time>2011-02-09T11:34:36Z</time></trkpt><trkpt lat="51.893919" lon="-1.824196"><ele>211.63</ele><time>2011-02-09T11:34:52Z</time></trkpt><trkpt lat="51.894040" lon="-1.824048"><ele>210.67</ele><time>2011-02-09T11:35:04Z</time></trkpt><trkpt lat="51.894174" lon="-1.823868"><ele>210.67</ele><time>2011-02-09T11:35:20Z</time></trkpt><trkpt lat="51.894345" lon="-1.823669"><ele>209.70</ele><time>2011-02-09T11:35:38Z</time></trkpt><trkpt lat="51.894523" lon="-1.823481"><ele>208.26</ele><time>2011-02-09T11:35:56Z</time></trkpt><trkpt lat="51.894570" lon="-1.823429"><ele>209.22</ele><time>2011-02-09T11:36:09Z</time></trkpt><trkpt lat="51.894706" lon="-1.823267"><ele>208.74</ele><time>2011-02-09T11:36:26Z</time></trkpt><trkpt lat="51.894869" lon="-1.823058"><ele>207.30</ele><time>2011-02-09T11:36:46Z</time></trkpt><trkpt lat="51.895014" lon="-1.822876"><ele>206.82</ele><time>2011-02-09T11:37:04Z</time></trkpt><trkpt lat="51.895162" lon="-1.822689"><ele>206.34</ele><time>2011-02-09T11:37:21Z</time></trkpt><trkpt lat="51.895301" lon="-1.822484"><ele>204.42</ele><time>2011-02-09T11:37:39Z</time></trkpt><trkpt lat="51.895441" lon="-1.822296"><ele>203.46</ele><time>2011-02-09T11:37:57Z</time></trkpt><trkpt lat="51.895550" lon="-1.822145"><ele>202.49</ele><time>2011-02-09T11:38:13Z</time></trkpt><trkpt lat="51.895703" lon="-1.821968"><ele>201.53</ele><time>2011-02-09T11:38:31Z</time></trkpt><trkpt lat="51.895846" lon="-1.821825"><ele>201.05</ele><time>2011-02-09T11:38:48Z</time></trkpt><trkpt lat="51.895991" lon="-1.821695"><ele>201.53</ele><time>2011-02-09T11:39:05Z</time></trkpt><trkpt lat="51.896170" lon="-1.821540"><ele>200.57</ele><time>2011-02-09T11:39:24Z</time></trkpt><trkpt lat="51.896338" lon="-1.821380"><ele>200.09</ele><time>2011-02-09T11:39:42Z</time></trkpt><trkpt lat="51.896543" lon="-1.821186"><ele>198.65</ele><time>2011-02-09T11:40:03Z</time></trkpt><trkpt lat="51.896744" lon="-1.820993"><ele>197.21</ele><time>2011-02-09T11:40:24Z</time></trkpt><trkpt lat="51.896899" lon="-1.820827"><ele>196.73</ele><time>2011-02-09T11:40:41Z</time></trkpt><trkpt lat="51.897034" lon="-1.820689"><ele>191.92</ele><time>2011-02-09T11:40:57Z</time></trkpt><trkpt lat="51.897185" lon="-1.820558"><ele>189.52</ele><time>2011-02-09T11:41:14Z</time></trkpt><trkpt lat="51.897347" lon="-1.820389"><ele>186.15</ele><time>2011-02-09T11:41:32Z</time></trkpt><trkpt lat="51.897354" lon="-1.820384"><ele>185.67</ele><time>2011-02-09T11:41:33Z</time></trkpt><trkpt lat="51.897383" lon="-1.820317"><ele>186.15</ele><time>2011-02-09T11:41:45Z</time></trkpt><trkpt lat="51.897530" lon="-1.820166"><ele>187.59</ele><time>2011-02-09T11:42:00Z</time></trkpt><trkpt lat="51.897615" lon="-1.820089"><ele>185.67</ele><time>2011-02-09T11:42:08Z</time></trkpt><trkpt lat="51.897771" lon="-1.819881"><ele>183.75</ele><time>2011-02-09T11:42:25Z</time></trkpt><trkpt lat="51.897954" lon="-1.819640"><ele>183.75</ele><time>2011-02-09T11:42:44Z</time></trkpt><trkpt lat="51.898163" lon="-1.819369"><ele>181.83</ele><time>2011-02-09T11:43:06Z</time></trkpt><trkpt lat="51.898332" lon="-1.819130"><ele>181.83</ele><time>2011-02-09T11:43:24Z</time></trkpt><trkpt lat="51.898495" lon="-1.818896"><ele>181.83</ele><time>2011-02-09T11:43:43Z</time></trkpt><trkpt lat="51.898657" lon="-1.818647"><ele>180.38</ele><time>2011-02-09T11:44:03Z</time></trkpt><trkpt lat="51.898854" lon="-1.818350"><ele>175.58</ele><time>2011-02-09T11:44:28Z</time></trkpt><trkpt lat="51.899021" lon="-1.818069"><ele>175.58</ele><time>2011-02-09T11:44:49Z</time></trkpt><trkpt lat="51.899191" lon="-1.817790"><ele>174.14</ele><time>2011-02-09T11:45:12Z</time></trkpt><trkpt lat="51.899358" lon="-1.817516"><ele>172.69</ele><time>2011-02-09T11:45:34Z</time></trkpt><trkpt lat="51.899532" lon="-1.817222"><ele>171.25</ele><time>2011-02-09T11:45:57Z</time></trkpt><trkpt lat="51.899729" lon="-1.816911"><ele>169.81</ele><time>2011-02-09T11:46:21Z</time></trkpt><trkpt lat="51.899898" lon="-1.816621"><ele>168.85</ele><time>2011-02-09T11:46:44Z</time></trkpt><trkpt lat="51.899980" lon="-1.816461"><ele>167.89</ele><time>2011-02-09T11:46:59Z</time></trkpt><trkpt lat="51.900110" lon="-1.816263"><ele>165.48</ele><time>2011-02-09T11:47:19Z</time></trkpt><trkpt lat="51.900228" lon="-1.816066"><ele>164.52</ele><time>2011-02-09T11:47:35Z</time></trkpt><trkpt lat="51.900321" lon="-1.815815"><ele>164.04</ele><time>2011-02-09T11:47:51Z</time></trkpt><trkpt lat="51.900483" lon="-1.815533"><ele>160.68</ele><time>2011-02-09T11:48:10Z</time></trkpt><trkpt lat="51.900530" lon="-1.815438"><ele>159.72</ele><time>2011-02-09T11:48:18Z</time></trkpt><trkpt lat="51.900591" lon="-1.815371"><ele>158.75</ele><time>2011-02-09T11:48:33Z</time></trkpt><trkpt lat="51.900617" lon="-1.815269"><ele>158.27</ele><time>2011-02-09T11:48:42Z</time></trkpt><trkpt lat="51.900634" lon="-1.815224"><ele>157.79</ele><time>2011-02-09T11:48:45Z</time></trkpt><trkpt lat="51.900650" lon="-1.815195"><ele>157.31</ele><time>2011-02-09T11:48:47Z</time></trkpt><trkpt lat="51.900762" lon="-1.814990"><ele>157.31</ele><time>2011-02-09T11:49:01Z</time></trkpt><trkpt lat="51.900864" lon="-1.814750"><ele>157.79</ele><time>2011-02-09T11:49:17Z</time></trkpt><trkpt lat="51.900899" lon="-1.814693"><ele>158.75</ele><time>2011-02-09T11:49:32Z</time></trkpt><trkpt lat="51.900900" lon="-1.814693"><ele>159.24</ele><time>2011-02-09T11:49:35Z</time></trkpt><trkpt lat="51.900940" lon="-1.814684"><ele>160.68</ele><time>2011-02-09T11:49:52Z</time></trkpt><trkpt lat="51.900897" lon="-1.814665"><ele>160.20</ele><time>2011-02-09T11:50:19Z</time></trkpt><trkpt lat="51.900888" lon="-1.814643"><ele>159.24</ele><time>2011-02-09T11:51:03Z</time></trkpt><trkpt lat="51.900911" lon="-1.814574"><ele>157.79</ele><time>2011-02-09T11:51:24Z</time></trkpt><trkpt lat="51.900942" lon="-1.814529"><ele>156.83</ele><time>2011-02-09T11:51:40Z</time></trkpt><trkpt lat="51.900973" lon="-1.814588"><ele>156.35</ele><time>2011-02-09T11:51:45Z</time></trkpt><trkpt lat="51.901059" lon="-1.814821"><ele>155.39</ele><time>2011-02-09T11:52:02Z</time></trkpt><trkpt lat="51.901158" lon="-1.815028"><ele>152.03</ele><time>2011-02-09T11:52:19Z</time></trkpt><trkpt lat="51.901240" lon="-1.815217"><ele>150.58</ele><time>2011-02-09T11:52:33Z</time></trkpt><trkpt lat="51.901387" lon="-1.815487"><ele>150.58</ele><time>2011-02-09T11:52:52Z</time></trkpt><trkpt lat="51.901446" lon="-1.815635"><ele>148.66</ele><time>2011-02-09T11:53:08Z</time></trkpt><trkpt lat="51.901451" lon="-1.815653"><ele>147.22</ele><time>2011-02-09T11:53:18Z</time></trkpt><trkpt lat="51.901435" lon="-1.815772"><ele>146.74</ele><time>2011-02-09T11:53:26Z</time></trkpt><trkpt lat="51.901403" lon="-1.816165"><ele>146.26</ele><time>2011-02-09T11:53:45Z</time></trkpt><trkpt lat="51.901382" lon="-1.816554"><ele>146.26</ele><time>2011-02-09T11:54:04Z</time></trkpt><trkpt lat="51.901374" lon="-1.816632"><ele>146.26</ele><time>2011-02-09T11:54:08Z</time></trkpt><trkpt lat="51.901358" lon="-1.816715"><ele>145.78</ele><time>2011-02-09T11:54:13Z</time></trkpt><trkpt lat="51.901343" lon="-1.816921"><ele>146.74</ele><time>2011-02-09T11:54:23Z</time></trkpt><trkpt lat="51.901317" lon="-1.817141"><ele>144.34</ele><time>2011-02-09T11:54:37Z</time></trkpt><trkpt lat="51.901284" lon="-1.817559"><ele>145.30</ele><time>2011-02-09T11:54:57Z</time></trkpt><trkpt lat="51.901280" lon="-1.817898"><ele>145.30</ele><time>2011-02-09T11:55:15Z</time></trkpt><trkpt lat="51.901274" lon="-1.818274"><ele>146.26</ele><time>2011-02-09T11:55:35Z</time></trkpt><trkpt lat="51.901267" lon="-1.818648"><ele>146.74</ele><time>2011-02-09T11:55:55Z</time></trkpt><trkpt lat="51.901252" lon="-1.819000"><ele>146.74</ele><time>2011-02-09T11:56:14Z</time></trkpt><trkpt lat="51.901229" lon="-1.819310"><ele>146.74</ele><time>2011-02-09T11:56:30Z</time></trkpt><trkpt lat="51.901223" lon="-1.819364"><ele>146.74</ele><time>2011-02-09T11:56:33Z</time></trkpt><trkpt lat="51.901187" lon="-1.819772"><ele>147.22</ele><time>2011-02-09T11:56:54Z</time></trkpt><trkpt lat="51.901152" lon="-1.820148"><ele>146.26</ele><time>2011-02-09T11:57:14Z</time></trkpt><trkpt lat="51.901110" lon="-1.820441"><ele>145.78</ele><time>2011-02-09T11:57:31Z</time></trkpt><trkpt lat="51.901105" lon="-1.820479"><ele>145.78</ele><time>2011-02-09T11:57:33Z</time></trkpt><trkpt lat="51.901098" lon="-1.820517"><ele>144.82</ele><time>2011-02-09T11:57:35Z</time></trkpt><trkpt lat="51.901065" lon="-1.820861"><ele>141.93</ele><time>2011-02-09T11:57:52Z</time></trkpt><trkpt lat="51.901027" lon="-1.821162"><ele>140.01</ele><time>2011-02-09T11:58:10Z</time></trkpt><trkpt lat="51.900980" lon="-1.821519"><ele>142.89</ele><time>2011-02-09T11:58:30Z</time></trkpt><trkpt lat="51.900978" lon="-1.822008"><ele>144.82</ele><time>2011-02-09T11:58:56Z</time></trkpt><trkpt lat="51.900979" lon="-1.822063"><ele>144.82</ele><time>2011-02-09T11:58:59Z</time></trkpt><trkpt lat="51.901044" lon="-1.822440"><ele>145.78</ele><time>2011-02-09T11:59:19Z</time></trkpt><trkpt lat="51.901127" lon="-1.822892"><ele>148.18</ele><time>2011-02-09T11:59:42Z</time></trkpt><trkpt lat="51.901151" lon="-1.822989"><ele>149.14</ele><time>2011-02-09T11:59:47Z</time></trkpt><trkpt lat="51.901230" lon="-1.823303"><ele>150.10</ele><time>2011-02-09T12:00:04Z</time></trkpt><trkpt lat="51.901256" lon="-1.823390"><ele>151.06</ele><time>2011-02-09T12:00:09Z</time></trkpt><trkpt lat="51.901330" lon="-1.823844"><ele>153.47</ele><time>2011-02-09T12:00:35Z</time></trkpt><trkpt lat="51.901379" lon="-1.824196"><ele>154.43</ele><time>2011-02-09T12:00:56Z</time></trkpt><trkpt lat="51.901426" lon="-1.824416"><ele>153.47</ele><time>2011-02-09T12:01:12Z</time></trkpt><trkpt lat="51.901425" lon="-1.824440"><ele>151.06</ele><time>2011-02-09T12:01:28Z</time></trkpt><trkpt lat="51.901510" lon="-1.824751"><ele>150.10</ele><time>2011-02-09T12:01:46Z</time></trkpt><trkpt lat="51.901636" lon="-1.825192"><ele>152.99</ele><time>2011-02-09T12:02:10Z</time></trkpt><trkpt lat="51.901696" lon="-1.825386"><ele>153.47</ele><time>2011-02-09T12:02:21Z</time></trkpt><trkpt lat="51.901770" lon="-1.825559"><ele>154.43</ele><time>2011-02-09T12:02:36Z</time></trkpt><trkpt lat="51.901828" lon="-1.826050"><ele>155.39</ele><time>2011-02-09T12:03:00Z</time></trkpt><trkpt lat="51.901902" lon="-1.826302"><ele>155.39</ele><time>2011-02-09T12:03:12Z</time></trkpt><trkpt lat="51.901979" lon="-1.826650"><ele>157.79</ele><time>2011-02-09T12:03:32Z</time></trkpt><trkpt lat="51.902016" lon="-1.827007"><ele>160.20</ele><time>2011-02-09T12:03:52Z</time></trkpt><trkpt lat="51.902020" lon="-1.827340"><ele>162.12</ele><time>2011-02-09T12:04:09Z</time></trkpt><trkpt lat="51.901992" lon="-1.827671"><ele>160.68</ele><time>2011-02-09T12:04:28Z</time></trkpt><trkpt lat="51.901964" lon="-1.827904"><ele>155.87</ele><time>2011-02-09T12:04:42Z</time></trkpt><trkpt lat="51.901938" lon="-1.828121"><ele>157.31</ele><time>2011-02-09T12:04:57Z</time></trkpt><trkpt lat="51.901936" lon="-1.828183"><ele>157.31</ele><time>2011-02-09T12:05:13Z</time></trkpt><trkpt lat="51.901946" lon="-1.828231"><ele>155.39</ele><time>2011-02-09T12:05:24Z</time></trkpt><trkpt lat="51.901948" lon="-1.828230"><ele>155.39</ele><time>2011-02-09T12:05:30Z</time></trkpt><trkpt lat="51.901976" lon="-1.828294"><ele>155.39</ele><time>2011-02-09T12:05:48Z</time></trkpt><trkpt lat="51.902025" lon="-1.828494"><ele>156.83</ele><time>2011-02-09T12:06:06Z</time></trkpt><trkpt lat="51.902119" lon="-1.828799"><ele>159.24</ele><time>2011-02-09T12:06:24Z</time></trkpt><trkpt lat="51.902207" lon="-1.829181"><ele>164.04</ele><time>2011-02-09T12:06:45Z</time></trkpt><trkpt lat="51.902259" lon="-1.829406"><ele>168.85</ele><time>2011-02-09T12:07:03Z</time></trkpt><trkpt lat="51.902273" lon="-1.829484"><ele>170.29</ele><time>2011-02-09T12:07:14Z</time></trkpt><trkpt lat="51.902303" lon="-1.829528"><ele>171.25</ele><time>2011-02-09T12:07:29Z</time></trkpt><trkpt lat="51.902338" lon="-1.829595"><ele>170.77</ele><time>2011-02-09T12:07:44Z</time></trkpt><trkpt lat="51.902367" lon="-1.829861"><ele>174.14</ele><time>2011-02-09T12:08:01Z</time></trkpt><trkpt lat="51.902396" lon="-1.830005"><ele>175.58</ele><time>2011-02-09T12:08:12Z</time></trkpt><trkpt lat="51.902409" lon="-1.830026"><ele>176.06</ele><time>2011-02-09T12:08:23Z</time></trkpt><trkpt lat="51.902521" lon="-1.830176"><ele>178.94</ele><time>2011-02-09T12:08:38Z</time></trkpt><trkpt lat="51.902551" lon="-1.830211"><ele>177.02</ele><time>2011-02-09T12:08:56Z</time></trkpt><trkpt lat="51.902705" lon="-1.830304"><ele>180.87</ele><time>2011-02-09T12:09:13Z</time></trkpt><trkpt lat="51.902756" lon="-1.830352"><ele>182.79</ele><time>2011-02-09T12:09:26Z</time></trkpt><trkpt lat="51.902840" lon="-1.830347"><ele>182.31</ele><time>2011-02-09T12:09:40Z</time></trkpt><trkpt lat="51.902868" lon="-1.830390"><ele>184.71</ele><time>2011-02-09T12:09:54Z</time></trkpt><trkpt lat="51.902884" lon="-1.830429"><ele>185.67</ele><time>2011-02-09T12:10:01Z</time></trkpt><trkpt lat="51.902989" lon="-1.830502"><ele>188.56</ele><time>2011-02-09T12:10:15Z</time></trkpt><trkpt lat="51.903143" lon="-1.830581"><ele>190.96</ele><time>2011-02-09T12:10:31Z</time></trkpt><trkpt lat="51.903268" lon="-1.830666"><ele>190.48</ele><time>2011-02-09T12:10:45Z</time></trkpt><trkpt lat="51.903459" lon="-1.830745"><ele>191.92</ele><time>2011-02-09T12:11:01Z</time></trkpt><trkpt lat="51.903635" lon="-1.830812"><ele>192.40</ele><time>2011-02-09T12:11:17Z</time></trkpt><trkpt lat="51.903852" lon="-1.830882"><ele>188.56</ele><time>2011-02-09T12:11:37Z</time></trkpt><trkpt lat="51.904010" lon="-1.830950"><ele>188.56</ele><time>2011-02-09T12:11:52Z</time></trkpt><trkpt lat="51.904178" lon="-1.831056"><ele>193.36</ele><time>2011-02-09T12:12:09Z</time></trkpt><trkpt lat="51.904338" lon="-1.831087"><ele>192.40</ele><time>2011-02-09T12:12:23Z</time></trkpt><trkpt lat="51.904504" lon="-1.831097"><ele>188.56</ele><time>2011-02-09T12:12:38Z</time></trkpt><trkpt lat="51.904676" lon="-1.831082"><ele>183.75</ele><time>2011-02-09T12:12:53Z</time></trkpt><trkpt lat="51.904916" lon="-1.831065"><ele>189.52</ele><time>2011-02-09T12:13:13Z</time></trkpt><trkpt lat="51.905147" lon="-1.831055"><ele>189.52</ele><time>2011-02-09T12:13:32Z</time></trkpt><trkpt lat="51.905346" lon="-1.831041"><ele>190.48</ele><time>2011-02-09T12:13:50Z</time></trkpt><trkpt lat="51.905560" lon="-1.831021"><ele>189.52</ele><time>2011-02-09T12:14:09Z</time></trkpt><trkpt lat="51.905814" lon="-1.830993"><ele>188.56</ele><time>2011-02-09T12:14:31Z</time></trkpt><trkpt lat="51.906010" lon="-1.830969"><ele>187.59</ele><time>2011-02-09T12:14:48Z</time></trkpt><trkpt lat="51.906179" lon="-1.830965"><ele>185.67</ele><time>2011-02-09T12:15:05Z</time></trkpt><trkpt lat="51.906374" lon="-1.830950"><ele>185.19</ele><time>2011-02-09T12:15:22Z</time></trkpt><trkpt lat="51.906530" lon="-1.830962"><ele>184.23</ele><time>2011-02-09T12:15:35Z</time></trkpt><trkpt lat="51.906721" lon="-1.830888"><ele>182.79</ele><time>2011-02-09T12:15:51Z</time></trkpt><trkpt lat="51.906727" lon="-1.830430"><ele>182.31</ele><time>2011-02-09T12:16:12Z</time></trkpt><trkpt lat="51.906687" lon="-1.830004"><ele>182.79</ele><time>2011-02-09T12:16:34Z</time></trkpt><trkpt lat="51.906657" lon="-1.829803"><ele>182.79</ele><time>2011-02-09T12:16:44Z</time></trkpt><trkpt lat="51.906643" lon="-1.829661"><ele>182.79</ele><time>2011-02-09T12:16:52Z</time></trkpt><trkpt lat="51.906614" lon="-1.829443"><ele>184.23</ele><time>2011-02-09T12:17:04Z</time></trkpt><trkpt lat="51.906627" lon="-1.829127"><ele>184.23</ele><time>2011-02-09T12:17:22Z</time></trkpt><trkpt lat="51.906591" lon="-1.828791"><ele>178.94</ele><time>2011-02-09T12:17:39Z</time></trkpt><trkpt lat="51.906578" lon="-1.828591"><ele>177.50</ele><time>2011-02-09T12:17:55Z</time></trkpt><trkpt lat="51.906612" lon="-1.828599"><ele>178.94</ele><time>2011-02-09T12:18:07Z</time></trkpt><trkpt lat="51.906616" lon="-1.828599"><ele>179.42</ele><time>2011-02-09T12:18:08Z</time></trkpt><trkpt lat="51.906765" lon="-1.828606"><ele>178.46</ele><time>2011-02-09T12:18:23Z</time></trkpt><trkpt lat="51.906934" lon="-1.828607"><ele>178.46</ele><time>2011-02-09T12:18:38Z</time></trkpt><trkpt lat="51.907167" lon="-1.828643"><ele>175.58</ele><time>2011-02-09T12:18:58Z</time></trkpt><trkpt lat="51.907348" lon="-1.828667"><ele>172.21</ele><time>2011-02-09T12:19:15Z</time></trkpt><trkpt lat="51.907579" lon="-1.828725"><ele>168.85</ele><time>2011-02-09T12:19:36Z</time></trkpt><trkpt lat="51.907781" lon="-1.828768"><ele>167.89</ele><time>2011-02-09T12:19:54Z</time></trkpt><trkpt lat="51.907871" lon="-1.828800"><ele>168.37</ele><time>2011-02-09T12:20:07Z</time></trkpt><trkpt lat="51.907946" lon="-1.828838"><ele>167.41</ele><time>2011-02-09T12:20:20Z</time></trkpt><trkpt lat="51.908117" lon="-1.828909"><ele>165.48</ele><time>2011-02-09T12:20:36Z</time></trkpt><trkpt lat="51.908339" lon="-1.828983"><ele>164.52</ele><time>2011-02-09T12:20:57Z</time></trkpt><trkpt lat="51.908533" lon="-1.829075"><ele>162.12</ele><time>2011-02-09T12:21:17Z</time></trkpt><trkpt lat="51.908722" lon="-1.829138"><ele>160.68</ele><time>2011-02-09T12:21:35Z</time></trkpt><trkpt lat="51.908899" lon="-1.829190"><ele>157.79</ele><time>2011-02-09T12:21:56Z</time></trkpt><trkpt lat="51.908959" lon="-1.829178"><ele>155.87</ele><time>2011-02-09T12:22:13Z</time></trkpt><trkpt lat="51.909099" lon="-1.829243"><ele>154.91</ele><time>2011-02-09T12:22:30Z</time></trkpt><trkpt lat="51.909225" lon="-1.829266"><ele>156.35</ele><time>2011-02-09T12:22:44Z</time></trkpt><trkpt lat="51.909382" lon="-1.829320"><ele>154.91</ele><time>2011-02-09T12:23:00Z</time></trkpt><trkpt lat="51.909520" lon="-1.829362"><ele>159.72</ele><time>2011-02-09T12:23:15Z</time></trkpt><trkpt lat="51.909638" lon="-1.829377"><ele>157.79</ele><time>2011-02-09T12:23:30Z</time></trkpt><trkpt lat="51.909703" lon="-1.829351"><ele>155.87</ele><time>2011-02-09T12:23:37Z</time></trkpt><trkpt lat="51.909777" lon="-1.829140"><ele>155.39</ele><time>2011-02-09T12:23:48Z</time></trkpt><trkpt lat="51.909704" lon="-1.828988"><ele>152.51</ele><time>2011-02-09T12:24:04Z</time></trkpt></trkseg></trk></gpx>